Latest Coastal Weather Observations for Robe Airport

IDV60701

Issued at 8:21 am EST Friday 29 May 2015 (issued every 10 minutes, with the page automatically refreshed every 10 minutes)

About coastal observations | Map of coastal stations | Coastal observations for VIC | Marine services | Other Formats
Station Details ID: 026105 Name: ROBE AIRFIELD Lat: -37.18 Lon: 139.81 Height: 3.0 m
Data from the previous 72 hours. | See also: Recent months at Robe Airport
Date/Time
EST
Temp

°C
Wind Pressure Rain
since 9am
mm
Weather Cloud Vis
km
Sea
Height
m
Swell
Dir
 
Speed
knots
Gust
knots
hPa Trend Height
m
Period
s
Dir
29/08:00am 11.2 WSW 5 8 1021.7 - 4.2 - - - - - - -
29/07:30am 11.4 SW 5 11 1021.4 - 4.2 - - - - - - -
29/07:00am 11.0 SW 3 5 1021.0 - 4.2 - - - - - - -
29/06:30am 11.0 SW 5 7 1020.7 - 4.2 Recent precip. - - - - - -
29/06:00am 11.4 SW 9 15 1020.4 - 4.2 - - - - - - -
29/05:30am 11.8 WSW 6 10 1020.2 - 4.0 - - - - - - -
29/05:00am 11.6 WSW 6 11 1020.1 - 4.0 - - - - - - -
29/04:30am 12.1 WSW 8 15 1020.0 - 4.0 - - - - - - -
29/04:00am 11.6 WSW 6 10 1019.8 - 4.0 - - - - - - -
29/03:30am 11.6 WSW 9 18 1019.9 - 4.0 - - - - - - -
29/03:00am 11.2 WSW 7 14 1019.7 - 4.0 - - - - - - -
29/02:30am 11.2 SW 6 11 1019.7 - 4.0 - - - - - - -
29/02:00am 12.4 W 8 13 1019.6 - 4.0 - - - - - - -
29/01:30am 11.8 WSW 6 9 1019.6 - 4.0 - - - - - - -
29/01:00am 11.7 WSW 7 13 1019.6 - 4.0 - - - - - - -
29/12:30am 12.1 W 7 12 1019.4 - 4.0 - - - - - - -
29/12:00am 11.9 WSW 7 11 1019.5 - 4.0 - - - - - - -
 
Date/Time
EST
Temp

°C
Wind Pressure Rain
since 9am
mm
Weather Cloud Vis
km
Sea
Height
m
Swell
Dir
 
Speed
knots
Gust
knots
hPa Trend Height
m
Period
s
Dir
28/11:30pm 11.5 W 4 7 1019.5 - 4.0 - - - - - - -
28/11:00pm 11.7 WSW 6 10 1019.2 - 4.0 - - - - - - -
28/10:30pm 12.1 WSW 10 19 1019.1 - 4.0 - - - - - - -
28/10:00pm 11.9 WSW 6 9 1018.9 - 4.0 - - - - - - -
28/09:30pm 12.2 W 5 8 1018.7 - 4.0 - - - - - - -
28/09:00pm 12.2 WSW 6 10 1018.5 - 4.0 - - - - - - -
28/08:30pm 12.9 WSW 7 11 1018.1 - 4.0 - - - - - - -
28/08:00pm 13.2 WSW 6 12 1017.9 - 4.0 - - - - - - -
28/07:30pm 13.3 WSW 7 14 1017.5 - 4.0 - - - - - - -
28/07:00pm 13.5 W 9 15 1017.3 - 4.0 - - - - - - -
28/06:30pm 13.6 WSW 7 12 1016.9 - 4.0 - - - - - - -
28/06:00pm 13.7 WSW 9 14 1016.6 - 4.0 - - - - - - -
28/05:30pm 13.9 W 9 17 1016.3 - 4.0 - - - - - - -
28/05:00pm 14.0 WSW 9 16 1016.0 - 4.0 - - - - - - -
28/04:30pm 14.4 WSW 11 21 1015.6 - 4.0 - - - - - - -
28/04:00pm 14.6 WSW 10 20 1015.2 - 4.0 - - - - - - -
28/03:30pm 13.8 WSW 11 18 1015.1 - 4.0 Recent precip. - - - - - -
28/03:00pm 14.4 W 11 19 1014.8 - 4.0 - - - - - - -
28/02:30pm 13.9 WSW 10 17 1014.7 - 3.8 - - - - - - -
28/02:00pm 13.7 WSW 11 18 1014.8 - 3.8 - - - - - - -
28/01:30pm 14.8 WNW 13 23 1014.3 - 3.2 - - - - - - -
28/01:07pm 14.1 WNW 17 27 1014.7 - 2.8 - - - - - - -
28/01:00pm 15.9 NW 17 26 1014.2 - 0.0 - - - - - - -
28/12:30pm 15.8 NW 17 23 1014.5 - 0.0 - - - - - - -
28/12:00pm 16.5 NW 16 22 1014.9 - 0.0 - - - - - - -
28/11:30am 16.5 NW 19 28 1015.3 - 0.0 - - - - - - -
28/11:00am 16.3 NW 17 22 1015.4 - 0.0 - - - - - - -
28/10:30am 15.9 NNW 15 20 1015.5 - 0.0 - - - - - - -
28/10:00am 15.2 NNW 16 22 1015.5 - 0.0 - - - - - - -
28/09:30am 15.4 NNW 16 23 1015.5 - 2.2 - - - - - - -
28/09:00am 15.2 NW 14 19 1015.6 - 2.2 - - - - - - -
28/08:30am 14.5 NW 12 17 1015.5 - 2.2 - - - - - - -
28/08:00am 14.1 NNW 13 17 1015.3 - 2.2 - - - - - - -
28/07:30am 14.0 NNW 12 16 1015.2 - 2.2 - - - - - - -
28/07:00am 14.1 NW 12 17 1015.0 - 2.2 - - - - - - -
28/06:30am 13.3 NNW 10 14 1014.9 - 2.2 - - - - - - -
28/06:00am 13.6 NNW 12 17 1014.8 - 2.2 - - - - - - -
28/05:30am 13.7 NW 14 19 1015.0 - 2.2 - - - - - - -
28/05:00am 13.3 NNW 11 15 1015.2 - 1.8 - - - - - - -
28/04:30am 13.4 NW 11 15 1015.2 - 1.6 - - - - - - -
28/04:00am 13.2 NW 13 19 1015.3 - 1.4 - - - - - - -
28/03:30am 14.6 NW 16 26 1015.4 - 0.8 Rain - - - - - -
28/03:27am 14.9 NW 15 26 1015.6 - 0.4 - - - - - - -
28/03:00am 14.9 NW 13 17 1015.6 - 0.2 - - - - - - -
28/02:30am 14.3 NNW 11 17 1015.6 - 0.2 - - - - - - -
28/02:00am 14.3 NNW 11 15 1015.3 - 0.2 - - - - - - -
28/01:30am 14.3 NNW 11 14 1015.6 - 0.2 - - - - - - -
28/01:00am 14.5 NNW 10 15 1015.8 - 0.2 - - - - - - -
28/12:30am 14.3 NNW 11 14 1016.0 - 0.2 - - - - - - -
28/12:00am 14.7 NNW 13 17 1016.1 - 0.2 - - - - - - -
 
Date/Time
EST
Temp

°C
Wind Pressure Rain
since 9am
mm
Weather Cloud Vis
km
Sea
Height
m
Swell
Dir
 
Speed
knots
Gust
knots
hPa Trend Height
m
Period
s
Dir
27/11:30pm 14.7 NNW 12 16 1016.4 - 0.2 - - - - - - -
27/11:00pm 14.9 NNW 13 17 1016.5 - 0.2 - - - - - - -
27/10:30pm 14.7 NNW 11 14 1016.8 - 0.2 - - - - - - -
27/10:00pm 14.5 NNW 12 15 1016.8 - 0.2 - - - - - - -
27/09:30pm 14.5 NNW 11 15 1016.8 - 0.2 - - - - - - -
27/09:00pm 14.4 NNW 11 13 1016.9 - 0.2 - - - - - - -
27/08:30pm 14.2 NNW 10 13 1016.9 - 0.2 - - - - - - -
27/08:00pm 14.2 NNW 10 13 1017.0 - 0.2 - - - - - - -
27/07:30pm 14.5 NNW 10 15 1017.0 - 0.2 - - - - - - -
27/07:00pm 14.6 NNW 10 13 1016.9 - 0.2 - - - - - - -
27/06:30pm 14.7 NNW 10 13 1016.9 - 0.2 - - - - - - -
27/06:00pm 14.8 NNW 10 13 1016.8 - 0.2 - - - - - - -
27/05:30pm 14.8 NNW 11 15 1016.8 - 0.2 - - - - - - -
27/05:00pm 15.2 NW 12 17 1016.9 - 0.2 - - - - - - -
27/04:30pm 15.4 NW 12 19 1016.8 - 0.2 - - - - - - -
27/04:00pm 15.7 NW 13 17 1016.9 - 0.2 - - - - - - -
27/03:30pm 16.0 NW 13 19 1016.8 - 0.2 - - - - - - -
27/03:00pm 16.0 NW 12 16 1016.7 - 0.2 - - - - - - -
27/02:30pm 16.1 NW 12 16 1016.7 - 0.2 - - - - - - -
27/02:00pm 15.9 NNW 11 16 1016.9 - 0.2 - - - - - - -
27/01:30pm 16.0 NNW 12 16 1017.1 - 0.2 - - - - - - -
27/01:00pm 16.1 NNW 13 19 1017.5 - 0.2 - - - - - - -
27/12:30pm 16.8 NNW 13 18 1017.9 - 0.2 - - - - - - -
27/12:00pm 16.4 NNW 13 20 1018.2 - 0.2 - - - - - - -
27/11:30am 16.8 NNW 13 18 1018.6 - 0.2 - - - - - - -
27/11:00am 16.7 NNW 11 14 1018.6 - 0.0 - - - - - - -
27/10:30am 16.5 NNW 10 13 1018.5 - 0.0 - - - - - - -
27/10:00am 15.5 NNW 11 17 1018.4 - 0.0 - - - - - - -
27/09:30am 15.1 NW 10 13 1018.7 - 0.0 - - - - - - -
27/09:00am 15.0 NNW 10 14 1018.4 - 0.0 - - - - - - -
27/08:30am 14.7 NW 9 14 1018.3 - 0.0 - - - - - - -
27/08:00am 14.0 NW 9 12 1018.0 - 0.0 - - - - - - -
27/07:30am 13.7 NW 9 12 1018.0 - 0.0 - - - - - - -
27/07:00am 11.0 N 7 7 1017.5 - 0.0 - - - - - - -
27/06:30am 10.7 N 6 7 1017.2 - 0.0 - - - - - - -
27/06:00am 11.3 N 6 7 1017.2 - 0.0 - - - - - - -
27/05:30am 11.5 N 5 6 1017.4 - 0.0 - - - - - - -
27/05:00am 13.3 NNW 6 9 1017.6 - 0.0 - - - - - - -
27/04:30am 13.4 NNW 7 9 1017.6 - 0.0 - - - - - - -
27/04:00am 13.5 NNW 7 8 1017.7 - 0.0 - - - - - - -
27/03:30am 13.2 NNW 7 9 1018.0 - 0.0 - - - - - - -
27/03:00am 12.1 N 5 6 1018.1 - 0.0 - - - - - - -
27/02:30am 9.8 N 1 3 1018.6 - 0.0 - - - - - - -
27/02:00am 10.8 N 3 4 1018.6 - 0.0 - - - - - - -
27/01:30am 10.2 NNE 2 2 1018.8 - 0.0 - - - - - - -
27/01:00am 9.8 NNE 2 3 1019.0 - 0.0 - - - - - - -
27/12:30am 10.4 NNE 2 4 1019.3 - 0.0 - - - - - - -
27/12:00am 11.5 N 3 3 1019.4 - 0.0 - - - - - - -
 
Date/Time
EST
Temp

°C
Wind Pressure Rain
since 9am
mm
Weather Cloud Vis
km
Sea
Height
m
Swell
Dir
 
Speed
knots
Gust
knots
hPa Trend Height
m
Period
s
Dir
26/11:30pm 11.8 N 4 5 1019.8 - 0.0 - - - - - - -
26/11:00pm 11.6 NNW 4 5 1020.2 - 0.0 - - - - - - -
26/10:30pm 12.1 NNW 2 4 1020.4 - 0.0 - - - - - - -
26/10:00pm 13.1 NNW 5 6 1020.6 - 0.0 - - - - - - -
26/09:30pm 12.9 NNW 5 7 1020.6 - 0.0 - - - - - - -
26/09:00pm 11.2 NW 3 4 1020.8 - 0.0 - - - - - - -
26/08:30pm 12.0 NW 3 4 1020.8 - 0.0 - - - - - - -
26/08:00pm 12.1 N 3 5 1020.8 - 0.0 - - - - - - -
26/07:30pm 12.9 N 1 2 1021.0 - 0.0 - - - - - - -
26/07:00pm 13.1 N 1 1 1020.9 - 0.0 - - - - - - -
26/06:30pm 13.5 N 2 2 1020.9 - 0.0 - - - - - - -
26/06:00pm 14.5 CALM 0 0 1021.1 - 0.0 - - - - - - -
26/05:30pm 15.5 N 1 1 1020.9 - 0.0 - - - - - - -
26/05:00pm 16.3 N 3 5 1021.0 - 0.0 - - - - - - -
26/04:30pm 17.0 N 5 7 1021.2 - 0.0 - - - - - - -
26/04:00pm 18.0 NNE 7 10 1021.4 - 0.0 - - - - - - -
26/03:30pm 18.7 N 8 11 1021.6 - 0.0 - - - - - - -
26/03:00pm 17.9 NNE 8 12 1021.7 - 0.0 - - - - - - -
26/02:30pm 18.1 NE 7 10 1022.0 - 0.0 - - - - - - -
26/02:00pm 17.9 NNE 9 11 1022.7 - 0.0 - - - - - - -
26/01:30pm 18.3 NE 7 9 1023.3 - 0.0 - - - - - - -
26/01:00pm 16.1 NE 6 8 1023.6 - 0.0 - - - - - - -
26/12:30pm 15.9 NE 5 7 1024.1 - 0.0 - - - - - - -
26/12:00pm 15.7 NE 6 9 1024.7 - 0.0 - - - - - - -
26/11:30am 14.2 NE 7 9 1025.3 - 0.0 - - - - - - -
26/11:00am 12.9 NNE 8 12 1026.1 - 0.0 - - - - - - -
26/10:30am 13.8 NE 8 11 1026.1 - 0.0 - - - - - - -
26/10:00am 12.2 NE 8 11 1026.4 - 0.0 - - - - - - -
26/09:30am 10.4 NE 4 5 1026.7 - 0.0 - - - - - - -
26/09:00am 8.7 NE 5 7 1026.9 - 0.0 - - - - - - -

Other Formats:

Comma delimited format used in spreadsheet applications
http://www.bom.gov.au/fwo/IDV60701/IDV60701.95816.axf

JavaScript Object Notation format (JSON) in row-major order
http://www.bom.gov.au/fwo/IDV60701/IDV60701.95816.json